Time;durP1;ratioP1;P1;durP2;ratioP2;P2;SDS_P1;SDS_P2;PMS_P1;PMS_P2;Temp;Humidity;BMP_temperature;BMP_pressure;BME280_temperature;BME280_humidity;BME280_pressure;Samples;Min_cycle;Max_cycle;Signal;HPM_P1;HPM_P2
2022/01/07 00:01:24;;;;;;;10.50;3.55;;;;;;;;;;5031769;28;20036;-69
2022/01/07 00:03:51;;;;;;;26.42;6.78;;;;;;;;;;5033120;28;20056;-69
2022/01/07 00:06:16;;;;;;;20.77;6.07;;;;;;;;;;5031442;28;20018;-69
2022/01/07 00:08:42;;;;;;;14.23;3.42;;;;;;;;;;5032544;28;20079;-69
2022/01/07 00:11:07;;;;;;;12.45;4.97;;;;;;;;;;5033207;28;20026;-68
2022/01/07 00:13:32;;;;;;;13.35;5.50;;;;;;;;;;5033074;28;20030;-69
2022/01/07 00:15:57;;;;;;;20.27;4.93;;;;;;;;;;5031446;28;20022;-68
2022/01/07 00:18:23;;;;;;;18.00;4.88;;;;;;;;;;5032747;28;20513;-68
2022/01/07 00:20:48;;;;;;;12.20;4.13;;;;;;;;;;5032005;28;20482;-68
2022/01/07 00:23:14;;;;;;;11.38;3.55;;;;;;;;;;5032606;28;20029;-70
2022/01/07 00:25:39;;;;;;;12.45;3.55;;;;;;;;;;5032142;28;20025;-69
2022/01/07 00:28:04;;;;;;;14.30;3.90;;;;;;;;;;5032695;28;20025;-69
2022/01/07 00:30:29;;;;;;;7.90;3.58;;;;;;;;;;5032341;28;20022;-69
2022/01/07 00:32:55;;;;;;;11.70;4.07;;;;;;;;;;5032065;28;20022;-70
2022/01/07 00:35:20;;;;;;;15.55;3.97;;;;;;;;;;5029938;28;20635;-69
2022/01/07 00:37:46;;;;;;;13.70;3.13;;;;;;;;;;5031877;28;20033;-68
2022/01/07 00:40:13;;;;;;;18.92;5.45;;;;;;;;;;5032288;28;20025;-69
2022/01/07 00:42:39;;;;;;;8.88;3.75;;;;;;;;;;5031866;28;20034;-69
2022/01/07 00:45:04;;;;;;;11.93;5.35;;;;;;;;;;5032213;28;20022;-69
2022/01/07 00:47:29;;;;;;;19.02;5.60;;;;;;;;;;5031374;28;20033;-68
2022/01/07 00:49:55;;;;;;;17.63;3.95;;;;;;;;;;5031752;28;20049;-68
2022/01/07 00:52:20;;;;;;;15.20;4.50;;;;;;;;;;5031495;28;20477;-68
2022/01/07 00:54:45;;;;;;;20.60;5.55;;;;;;;;;;5031770;28;20073;-68
2022/01/07 00:57:10;;;;;;;11.68;4.43;;;;;;;;;;5031553;28;20023;-68
2022/01/07 00:59:36;;;;;;;15.40;4.10;;;;;;;;;;5030206;28;20390;-68
2022/01/07 01:02:01;;;;;;;12.77;2.15;;;;;;;;;;5031170;28;20033;-68
2022/01/07 01:04:26;;;;;;;15.48;5.07;;;;;;;;;;5031279;28;20112;-69
2022/01/07 01:06:52;;;;;;;9.50;3.65;;;;;;;;;;5031575;28;20167;-68
2022/01/07 01:09:17;;;;;;;9.43;3.22;;;;;;;;;;5030973;28;20084;-68
2022/01/07 01:11:42;;;;;;;7.57;3.25;;;;;;;;;;5031367;28;20404;-69
2022/01/07 01:14:07;;;;;;;9.88;2.83;;;;;;;;;;5031328;28;20036;-69
2022/01/07 01:16:33;;;;;;;15.32;3.75;;;;;;;;;;5024085;28;20029;-69
2022/01/07 01:18:58;;;;;;;18.02;3.67;;;;;;;;;;5019755;28;20017;-68
2022/01/07 01:21:23;;;;;;;7.50;3.00;;;;;;;;;;5031321;28;20029;-69
2022/01/07 01:23:50;;;;;;;11.95;3.63;;;;;;;;;;5031876;28;20021;-69
2022/01/07 01:26:15;;;;;;;21.83;5.50;;;;;;;;;;5030684;28;20047;-68
2022/01/07 01:28:41;;;;;;;7.40;2.05;;;;;;;;;;5030846;28;20537;-69
2022/01/07 01:31:06;;;;;;;8.90;3.72;;;;;;;;;;5030102;28;20017;-68
2022/01/07 01:33:32;;;;;;;16.38;3.92;;;;;;;;;;5031126;28;20021;-68
2022/01/07 01:35:57;;;;;;;7.70;2.17;;;;;;;;;;5031102;28;20109;-69
2022/01/07 01:38:22;;;;;;;11.00;2.85;;;;;;;;;;5030752;28;20040;-68
2022/01/07 01:40:47;;;;;;;7.30;2.95;;;;;;;;;;5030999;28;20370;-68
2022/01/07 01:43:13;;;;;;;7.43;2.92;;;;;;;;;;5029766;28;20022;-68
2022/01/07 01:45:38;;;;;;;11.98;3.90;;;;;;;;;;5030690;28;20072;-68
2022/01/07 01:48:03;;;;;;;15.65;4.68;;;;;;;;;;5013541;28;20068;-68
2022/01/07 01:50:28;;;;;;;10.90;2.22;;;;;;;;;;5020273;28;20484;-69
2022/01/07 01:52:55;;;;;;;18.63;4.55;;;;;;;;;;5030897;28;20096;-68
2022/01/07 01:55:21;;;;;;;19.35;4.82;;;;;;;;;;5030335;28;20017;-68
2022/01/07 01:57:47;;;;;;;9.00;3.08;;;;;;;;;;5030647;28;20164;-68
2022/01/07 02:00:13;;;;;;;7.82;2.95;;;;;;;;;;5030418;28;20030;-68
2022/01/07 02:02:38;;;;;;;17.00;4.32;;;;;;;;;;5030608;28;20043;-68
2022/01/07 02:05:04;;;;;;;12.50;4.40;;;;;;;;;;5030105;28;20018;-68
2022/01/07 02:07:31;;;;;;;16.13;3.80;;;;;;;;;;5030301;28;20064;-68
2022/01/07 02:09:56;;;;;;;9.63;2.58;;;;;;;;;;5030660;28;20041;-68
2022/01/07 02:12:21;;;;;;;10.65;2.75;;;;;;;;;;5029988;28;20529;-68
2022/01/07 02:14:53;;;;;;;8.15;3.58;;;;;;;;;;5030203;28;20029;-68
2022/01/07 02:17:20;;;;;;;9.10;2.45;;;;;;;;;;5027274;28;20486;-68
2022/01/07 02:19:45;;;;;;;9.60;2.55;;;;;;;;;;5030124;28;20025;-68
2022/01/07 02:22:11;;;;;;;12.25;3.15;;;;;;;;;;5030261;28;20460;-68
2022/01/07 02:24:37;;;;;;;15.35;4.20;;;;;;;;;;5029895;28;20040;-68
2022/01/07 02:27:03;;;;;;;11.23;3.13;;;;;;;;;;5030633;28;20010;-68
2022/01/07 02:29:28;;;;;;;4.88;2.25;;;;;;;;;;5029453;28;20025;-68
2022/01/07 02:31:53;;;;;;;5.93;2.30;;;;;;;;;;5029540;28;20514;-68
2022/01/07 02:34:18;;;;;;;4.57;2.35;;;;;;;;;;5029903;28;20116;-68
2022/01/07 02:36:44;;;;;;;8.35;2.53;;;;;;;;;;5030050;28;20490;-68
2022/01/07 02:39:09;;;;;;;16.23;4.15;;;;;;;;;;5029900;28;20025;-68
2022/01/07 02:41:34;;;;;;;4.60;1.93;;;;;;;;;;5029696;28;20116;-68
2022/01/07 02:43:59;;;;;;;6.22;2.75;;;;;;;;;;5029561;28;20763;-69
2022/01/07 02:46:24;;;;;;;3.92;2.35;;;;;;;;;;5029637;28;20025;-68
2022/01/07 02:48:49;;;;;;;15.73;2.65;;;;;;;;;;5029503;28;20021;-70
2022/01/07 02:51:15;;;;;;;8.88;3.40;;;;;;;;;;5029818;28;20452;-68
2022/01/07 02:53:40;;;;;;;10.07;4.40;;;;;;;;;;5029436;28;20017;-69
2022/01/07 02:56:05;;;;;;;16.80;4.65;;;;;;;;;;5029864;28;20029;-69
2022/01/07 02:58:30;;;;;;;3.38;1.55;;;;;;;;;;5028202;28;20026;-69
2022/01/07 03:00:56;;;;;;;11.77;3.75;;;;;;;;;;5029672;28;20424;-69
2022/01/07 03:03:21;;;;;;;14.07;5.22;;;;;;;;;;5029747;28;20083;-69
2022/01/07 03:05:46;;;;;;;9.85;3.72;;;;;;;;;;5029238;28;20021;-69
2022/01/07 03:08:11;;;;;;;18.03;3.80;;;;;;;;;;5052308;23;20536;-66
2022/01/07 03:10:37;;;;;;;14.57;3.42;;;;;;;;;;5029009;28;20600;-66
2022/01/07 03:13:03;;;;;;;5.95;2.60;;;;;;;;;;5029945;28;20083;-66
2022/01/07 03:15:29;;;;;;;14.85;2.65;;;;;;;;;;5029304;28;20029;-66
2022/01/07 03:17:55;;;;;;;20.85;5.40;;;;;;;;;;5029139;28;20017;-66
2022/01/07 03:20:20;;;;;;;17.77;4.45;;;;;;;;;;5029670;28;20040;-66
2022/01/07 03:22:46;;;;;;;11.98;3.22;;;;;;;;;;5029475;28;20021;-66
2022/01/07 03:25:12;;;;;;;14.25;5.63;;;;;;;;;;5033660;28;20025;-66
2022/01/07 03:27:38;;;;;;;6.63;2.72;;;;;;;;;;5032507;28;20358;-67
2022/01/07 03:30:04;;;;;;;4.82;3.15;;;;;;;;;;5033295;28;20100;-66
2022/01/07 03:32:29;;;;;;;10.57;4.70;;;;;;;;;;5033329;28;20108;-66
2022/01/07 03:34:55;;;;;;;11.30;3.35;;;;;;;;;;5033377;28;20509;-67
2022/01/07 03:37:20;;;;;;;10.70;2.92;;;;;;;;;;5033216;28;20025;-66
2022/01/07 03:39:45;;;;;;;13.45;3.53;;;;;;;;;;5032761;28;20025;-66
2022/01/07 03:42:10;;;;;;;2.28;1.80;;;;;;;;;;5035295;28;20017;-66
2022/01/07 03:44:36;;;;;;;5.63;2.72;;;;;;;;;;5041245;28;20032;-66
2022/01/07 03:47:01;;;;;;;14.97;4.93;;;;;;;;;;5033276;28;20036;-67
2022/01/07 03:49:26;;;;;;;5.22;2.38;;;;;;;;;;5032850;28;20268;-67
2022/01/07 03:51:51;;;;;;;9.77;4.13;;;;;;;;;;5032525;28;20032;-67
2022/01/07 03:54:17;;;;;;;7.35;3.17;;;;;;;;;;5032675;28;20029;-66
2022/01/07 03:56:42;;;;;;;11.60;4.85;;;;;;;;;;5031781;28;20029;-66
2022/01/07 03:59:07;;;;;;;11.50;4.03;;;;;;;;;;5032848;28;20530;-66
2022/01/07 04:01:32;;;;;;;13.02;4.38;;;;;;;;;;5032774;28;20033;-66
2022/01/07 04:03:58;;;;;;;16.80;6.88;;;;;;;;;;5032350;28;20029;-66
2022/01/07 04:06:23;;;;;;;16.08;5.10;;;;;;;;;;5032242;28;20021;-66
2022/01/07 04:08:48;;;;;;;11.30;3.15;;;;;;;;;;5031391;28;20033;-66
2022/01/07 04:11:13;;;;;;;9.40;3.65;;;;;;;;;;5031182;28;20028;-67
2022/01/07 04:13:38;;;;;;;7.18;3.03;;;;;;;;;;5036042;28;20032;-66
2022/01/07 04:16:04;;;;;;;11.13;3.08;;;;;;;;;;5040536;28;20470;-66
2022/01/07 04:18:29;;;;;;;12.25;4.25;;;;;;;;;;5032421;28;20089;-66
2022/01/07 04:20:54;;;;;;;12.48;4.32;;;;;;;;;;5032197;28;20464;-66
2022/01/07 04:23:19;;;;;;;10.75;3.30;;;;;;;;;;5031646;28;20051;-66
2022/01/07 04:25:45;;;;;;;8.57;3.10;;;;;;;;;;5032223;28;20026;-66
2022/01/07 04:28:10;;;;;;;7.18;2.90;;;;;;;;;;5031684;28;20116;-67
2022/01/07 04:30:39;;;;;;;3.28;1.67;;;;;;;;;;5031018;28;20021;-67
2022/01/07 04:33:04;;;;;;;4.15;2.55;;;;;;;;;;5029664;28;20021;-66
2022/01/07 04:35:31;;;;;;;3.28;2.25;;;;;;;;;;5031476;28;20076;-66
2022/01/07 04:37:56;;;;;;;13.10;2.05;;;;;;;;;;5031381;28;20127;-66
2022/01/07 04:40:21;;;;;;;11.68;4.15;;;;;;;;;;5031956;28;20116;-66
2022/01/07 04:42:47;;;;;;;4.15;2.78;;;;;;;;;;5031331;28;20041;-66
2022/01/07 04:45:12;;;;;;;12.15;4.05;;;;;;;;;;5031787;28;20025;-66
2022/01/07 04:47:38;;;;;;;10.73;4.78;;;;;;;;;;5032735;28;20021;-66
2022/01/07 04:50:09;;;;;;;12.93;3.83;;;;;;;;;;5041826;28;20017;-66
2022/01/07 04:52:34;;;;;;;11.18;3.60;;;;;;;;;;5031517;28;20151;-66
2022/01/07 04:54:59;;;;;;;19.05;4.55;;;;;;;;;;5031306;28;20117;-67
2022/01/07 04:57:24;;;;;;;13.25;3.40;;;;;;;;;;5031210;28;20466;-66
2022/01/07 04:59:49;;;;;;;11.00;2.67;;;;;;;;;;5029111;28;20040;-66
2022/01/07 05:02:14;;;;;;;8.60;2.47;;;;;;;;;;5031017;28;20139;-66
2022/01/07 05:04:40;;;;;;;8.10;3.00;;;;;;;;;;5031583;28;20033;-66
2022/01/07 05:07:05;;;;;;;15.82;3.08;;;;;;;;;;5031867;28;20021;-66
2022/01/07 05:09:30;;;;;;;7.13;2.78;;;;;;;;;;5031256;28;20037;-67
2022/01/07 05:11:55;;;;;;;3.67;1.88;;;;;;;;;;5031323;28;20389;-66
2022/01/07 05:14:21;;;;;;;18.73;5.20;;;;;;;;;;5031760;28;20025;-66
2022/01/07 05:16:46;;;;;;;10.02;2.58;;;;;;;;;;5031115;28;20104;-66
2022/01/07 05:19:11;;;;;;;8.45;3.60;;;;;;;;;;5030470;28;20508;-66
2022/01/07 05:21:37;;;;;;;10.90;2.88;;;;;;;;;;5030744;28;20022;-66
2022/01/07 05:24:02;;;;;;;15.20;3.83;;;;;;;;;;5031121;28;20021;-67
2022/01/07 05:26:28;;;;;;;4.75;1.80;;;;;;;;;;5031119;28;20438;-66
2022/01/07 05:28:53;;;;;;;12.30;3.72;;;;;;;;;;5030162;28;20561;-66
2022/01/07 05:31:19;;;;;;;14.63;4.05;;;;;;;;;;5031557;28;20029;-66
2022/01/07 05:33:44;;;;;;;11.45;3.28;;;;;;;;;;5030727;28;20510;-67
2022/01/07 05:36:09;;;;;;;16.27;3.35;;;;;;;;;;5030929;28;20367;-67
2022/01/07 05:38:34;;;;;;;9.48;2.25;;;;;;;;;;5030529;28;20382;-67
2022/01/07 05:41:00;;;;;;;11.77;2.97;;;;;;;;;;5030475;28;20032;-66
2022/01/07 05:43:26;;;;;;;6.45;3.88;;;;;;;;;;5028423;28;20382;-67
2022/01/07 05:45:52;;;;;;;3.33;1.98;;;;;;;;;;5030181;28;20021;-66
2022/01/07 05:48:17;;;;;;;15.38;3.90;;;;;;;;;;5030537;28;20032;-66
2022/01/07 05:50:42;;;;;;;10.98;2.67;;;;;;;;;;5030925;28;20018;-66
2022/01/07 05:53:07;;;;;;;11.15;4.60;;;;;;;;;;5029660;28;20492;-66
2022/01/07 05:55:32;;;;;;;7.53;2.65;;;;;;;;;;5030149;28;20112;-66
2022/01/07 05:57:58;;;;;;;7.50;3.33;;;;;;;;;;5030556;28;20385;-66
2022/01/07 06:00:23;;;;;;;6.32;3.03;;;;;;;;;;5030503;28;20048;-66
2022/01/07 06:02:48;;;;;;;18.48;4.70;;;;;;;;;;5030690;28;20112;-67
2022/01/07 06:05:13;;;;;;;8.85;2.60;;;;;;;;;;5018126;28;20068;-66
2022/01/07 06:07:38;;;;;;;20.45;3.40;;;;;;;;;;5026531;28;20061;-66
2022/01/07 06:10:04;;;;;;;2.22;1.33;;;;;;;;;;5029958;28;20476;-67
2022/01/07 06:12:29;;;;;;;6.03;1.90;;;;;;;;;;5030155;28;20017;-66
2022/01/07 06:14:55;;;;;;;3.23;2.07;;;;;;;;;;5030361;28;20025;-67
2022/01/07 06:17:20;;;;;;;13.50;4.18;;;;;;;;;;5029785;28;20702;-66
2022/01/07 06:19:45;;;;;;;8.07;2.70;;;;;;;;;;5030233;28;20037;-66
2022/01/07 06:22:11;;;;;;;7.38;2.72;;;;;;;;;;5030347;28;20034;-67
2022/01/07 06:24:36;;;;;;;2.78;1.70;;;;;;;;;;5029985;28;20366;-67
2022/01/07 06:27:02;;;;;;;7.00;2.55;;;;;;;;;;5029950;28;20110;-66
2022/01/07 06:29:27;;;;;;;6.72;1.83;;;;;;;;;;5030070;28;20014;-66
2022/01/07 06:31:52;;;;;;;9.88;2.78;;;;;;;;;;5030629;28;20010;-66
2022/01/07 06:34:20;;;;;;;12.60;3.47;;;;;;;;;;5030107;28;20021;-66
2022/01/07 06:36:45;;;;;;;20.27;2.85;;;;;;;;;;5029351;28;20026;-66
2022/01/07 06:39:12;;;;;;;7.10;2.35;;;;;;;;;;5030256;28;20033;-67
2022/01/07 06:41:37;;;;;;;4.97;2.40;;;;;;;;;;5029698;28;20021;-66
2022/01/07 06:44:02;;;;;;;13.98;4.28;;;;;;;;;;5027353;28;20385;-67
2022/01/07 06:46:27;;;;;;;15.77;3.28;;;;;;;;;;5028163;28;20063;-67
2022/01/07 06:48:53;;;;;;;7.30;2.40;;;;;;;;;;5027366;28;20017;-67
2022/01/07 06:51:18;;;;;;;11.15;3.03;;;;;;;;;;5028217;28;20381;-67
2022/01/07 06:53:43;;;;;;;1.90;1.20;;;;;;;;;;5028644;28;20033;-66
2022/01/07 06:56:08;;;;;;;7.40;2.00;;;;;;;;;;5028184;28;20029;-67
2022/01/07 06:58:33;;;;;;;7.65;1.65;;;;;;;;;;5027569;28;20310;-67
2022/01/07 07:00:59;;;;;;;6.50;2.97;;;;;;;;;;5024021;28;20083;-66
2022/01/07 07:03:24;;;;;;;18.67;2.10;;;;;;;;;;5033398;28;20466;-66
2022/01/07 07:05:49;;;;;;;15.38;4.40;;;;;;;;;;5033810;28;20028;-67
2022/01/07 07:08:14;;;;;;;12.23;4.05;;;;;;;;;;5036554;28;20030;-67
2022/01/07 07:10:40;;;;;;;12.82;4.97;;;;;;;;;;5032198;28;20033;-67
2022/01/07 07:13:05;;;;;;;10.10;3.42;;;;;;;;;;5033449;28;20377;-66
2022/01/07 07:15:30;;;;;;;14.38;3.30;;;;;;;;;;5033438;28;20043;-66
2022/01/07 07:17:55;;;;;;;11.25;3.63;;;;;;;;;;5033261;28;20559;-66
2022/01/07 07:20:20;;;;;;;7.13;2.47;;;;;;;;;;5031059;28;20025;-66
2022/01/07 07:22:46;;;;;;;4.93;2.22;;;;;;;;;;5032549;28;20029;-66
2022/01/07 07:25:11;;;;;;;6.55;2.03;;;;;;;;;;5033554;28;20057;-66
2022/01/07 07:27:36;;;;;;;6.07;2.15;;;;;;;;;;5032807;28;20391;-66
2022/01/07 07:30:09;;;;;;;5.47;2.30;;;;;;;;;;5033186;28;20072;-66
2022/01/07 07:32:36;;;;;;;8.65;3.83;;;;;;;;;;5030605;28;20096;-67
2022/01/07 07:35:13;;;;;;;11.68;3.17;;;;;;;;;;5032138;28;20018;-67
2022/01/07 07:37:38;;;;;;;9.13;2.97;;;;;;;;;;5030836;28;20022;-66
2022/01/07 07:40:04;;;;;;;21.23;3.45;;;;;;;;;;5032706;28;20033;-67
2022/01/07 07:42:29;;;;;;;6.38;1.67;;;;;;;;;;5032967;28;20014;-67
2022/01/07 07:44:54;;;;;;;8.30;1.95;;;;;;;;;;5032736;28;20075;-66
2022/01/07 07:47:19;;;;;;;6.63;3.10;;;;;;;;;;5032756;28;20045;-66
2022/01/07 07:49:45;;;;;;;10.35;3.10;;;;;;;;;;5032586;28;20068;-67
2022/01/07 07:52:10;;;;;;;9.85;2.45;;;;;;;;;;5032844;28;20501;-67
2022/01/07 07:54:35;;;;;;;7.40;2.08;;;;;;;;;;5032835;28;20021;-67
2022/01/07 07:57:00;;;;;;;6.35;2.67;;;;;;;;;;5031304;28;20056;-67
2022/01/07 07:59:26;;;;;;;7.95;3.42;;;;;;;;;;5031908;28;20025;-66
2022/01/07 08:01:51;;;;;;;6.80;2.75;;;;;;;;;;5032549;28;20035;-67
2022/01/07 08:04:18;;;;;;;6.55;3.05;;;;;;;;;;5032273;28;20026;-67
2022/01/07 08:06:43;;;;;;;4.65;2.22;;;;;;;;;;5031929;28;20087;-66
2022/01/07 08:09:08;;;;;;;11.43;4.28;;;;;;;;;;5031371;28;20421;-66
2022/01/07 08:11:48;;;;;;;2.63;1.58;;;;;;;;;;5032126;28;20128;-66
2022/01/07 08:16:57;;;;;;;5.57;2.00;;;;;;;;;;5032252;28;20109;-67
2022/01/07 08:19:22;;;;;;;4.53;1.40;;;;;;;;;;5032354;28;20112;-67
2022/01/07 08:21:47;;;;;;;5.17;1.93;;;;;;;;;;5032763;28;20021;-66
2022/01/07 08:24:12;;;;;;;4.85;1.88;;;;;;;;;;5032674;28;20256;-67
2022/01/07 08:26:38;;;;;;;2.20;0.93;;;;;;;;;;5032373;28;20025;-66
2022/01/07 08:29:07;;;;;;;3.17;1.38;;;;;;;;;;5031762;28;20113;-65
2022/01/07 08:36:42;;;;;;;2.65;1.55;;;;;;;;;;5031207;28;20405;-67
2022/01/07 08:39:08;;;;;;;3.65;1.80;;;;;;;;;;5031569;28;20045;-67
2022/01/07 08:41:34;;;;;;;4.63;1.30;;;;;;;;;;5031552;28;20470;-67
2022/01/07 08:43:59;;;;;;;2.17;1.20;;;;;;;;;;5034737;28;20020;-66
2022/01/07 08:46:24;;;;;;;5.63;1.70;;;;;;;;;;5032289;28;20017;-67
2022/01/07 08:48:50;;;;;;;5.38;1.38;;;;;;;;;;5031318;28;20025;-66
2022/01/07 08:51:15;;;;;;;2.25;1.33;;;;;;;;;;5031260;28;20389;-67
2022/01/07 08:53:40;;;;;;;4.38;1.75;;;;;;;;;;5032005;28;20473;-67
2022/01/07 08:56:06;;;;;;;1.67;1.10;;;;;;;;;;5030023;28;20646;-67
2022/01/07 08:58:31;;;;;;;4.30;1.85;;;;;;;;;;5031640;28;20390;-66
2022/01/07 09:00:56;;;;;;;5.72;1.67;;;;;;;;;;5030550;28;20461;-66
2022/01/07 09:03:22;;;;;;;1.70;0.90;;;;;;;;;;5031490;28;20025;-67
2022/01/07 09:05:48;;;;;;;1.15;0.85;;;;;;;;;;5029527;28;20032;-67
2022/01/07 09:08:13;;;;;;;1.25;0.65;;;;;;;;;;5031791;28;20021;-67
2022/01/07 09:10:39;;;;;;;6.95;1.80;;;;;;;;;;5030543;28;20032;-67
2022/01/07 09:13:04;;;;;;;9.70;1.80;;;;;;;;;;5031606;28;20519;-67
2022/01/07 09:15:29;;;;;;;1.92;0.85;;;;;;;;;;5031068;28;20034;-67
2022/01/07 09:17:54;;;;;;;3.97;1.52;;;;;;;;;;5030719;28;20029;-67
2022/01/07 09:20:22;;;;;;;3.85;0.93;;;;;;;;;;5030631;28;20445;-67
2022/01/07 09:22:48;;;;;;;3.20;1.48;;;;;;;;;;5030015;28;20028;-67
2022/01/07 09:25:14;;;;;;;1.33;0.85;;;;;;;;;;5030947;28;20030;-67
2022/01/07 09:27:41;;;;;;;8.65;1.50;;;;;;;;;;5031007;28;20501;-67
2022/01/07 09:30:07;;;;;;;2.20;1.20;;;;;;;;;;5030731;28;20023;-67
2022/01/07 09:32:32;;;;;;;3.55;0.93;;;;;;;;;;5030892;28;20024;-67
2022/01/07 09:34:58;;;;;;;1.73;1.00;;;;;;;;;;5030008;28;20128;-67
2022/01/07 09:37:23;;;;;;;2.03;1.13;;;;;;;;;;5030251;28;20025;-67
2022/01/07 09:39:48;;;;;;;3.83;1.35;;;;;;;;;;5030373;28;20021;-67
2022/01/07 09:42:13;;;;;;;1.10;0.77;;;;;;;;;;5030029;28;20454;-67
2022/01/07 09:44:43;;;;;;;3.10;1.50;;;;;;;;;;5029505;28;20338;-67
2022/01/07 09:47:11;;;;;;;2.17;1.17;;;;;;;;;;5030413;28;20712;-67
2022/01/07 09:49:36;;;;;;;2.63;1.40;;;;;;;;;;5026428;28;20610;-67
2022/01/07 09:52:01;;;;;;;1.00;0.60;;;;;;;;;;5030246;28;20052;-67
2022/01/07 09:54:27;;;;;;;6.80;1.50;;;;;;;;;;5030529;28;20496;-67
2022/01/07 09:56:52;;;;;;;3.20;1.42;;;;;;;;;;5029725;28;20399;-67
2022/01/07 09:59:17;;;;;;;3.17;1.05;;;;;;;;;;5030038;28;20018;-67
2022/01/07 10:01:52;;;;;;;2.22;1.25;;;;;;;;;;5030317;28;20370;-67
2022/01/07 10:04:27;;;;;;;1.08;0.55;;;;;;;;;;5030122;28;20026;-67
2022/01/07 10:07:08;;;;;;;3.22;1.45;;;;;;;;;;5030412;28;20025;-67
2022/01/07 10:09:33;;;;;;;1.63;0.80;;;;;;;;;;5028607;28;20040;-67
2022/01/07 10:12:02;;;;;;;2.00;1.07;;;;;;;;;;5030190;28;20547;-67
2022/01/07 10:14:29;;;;;;;1.00;0.50;;;;;;;;;;5030751;28;20275;-67
2022/01/07 10:16:56;;;;;;;2.38;1.00;;;;;;;;;;5029560;28;20123;-67
2022/01/07 10:19:28;;;;;;;2.03;0.82;;;;;;;;;;5028864;28;20025;-67
2022/01/07 10:22:00;;;;;;;2.03;1.08;;;;;;;;;;5029905;28;20100;-67
2022/01/07 10:24:26;;;;;;;3.22;1.48;;;;;;;;;;5029586;28;20052;-67
2022/01/07 10:27:10;;;;;;;1.88;1.05;;;;;;;;;;5030289;28;20022;-67
2022/01/07 10:29:40;;;;;;;1.65;1.08;;;;;;;;;;5029540;28;20486;-67
2022/01/07 10:32:25;;;;;;;0.65;0.50;;;;;;;;;;5027754;28;20040;-67
2022/01/07 10:35:06;;;;;;;2.80;0.80;;;;;;;;;;5030048;28;20021;-67
2022/01/07 10:37:31;;;;;;;5.93;0.75;;;;;;;;;;5029885;28;20029;-67
2022/01/07 10:39:57;;;;;;;1.52;1.05;;;;;;;;;;5022039;28;20021;-67
2022/01/07 10:42:23;;;;;;;2.22;1.20;;;;;;;;;;5028889;28;20018;-67
2022/01/07 10:45:01;;;;;;;6.72;1.70;;;;;;;;;;5028894;28;20037;-67
2022/01/07 10:47:28;;;;;;;1.48;0.90;;;;;;;;;;5027354;28;20485;-67
2022/01/07 10:50:12;;;;;;;3.05;1.27;;;;;;;;;;5027855;28;20025;-67
2022/01/07 10:52:37;;;;;;;1.45;0.50;;;;;;;;;;5029108;28;20021;-67
2022/01/07 10:55:18;;;;;;;1.27;0.77;;;;;;;;;;5029282;28;20077;-66
2022/01/07 10:57:44;;;;;;;0.90;0.52;;;;;;;;;;5026936;28;20021;-66
2022/01/07 11:00:14;;;;;;;1.23;0.50;;;;;;;;;;5029079;28;20425;-67
2022/01/07 11:02:41;;;;;;;2.85;1.08;;;;;;;;;;5029448;28;20025;-66
2022/01/07 11:05:07;;;;;;;2.47;1.00;;;;;;;;;;5029382;28;20032;-67
2022/01/07 11:07:33;;;;;;;1.15;0.80;;;;;;;;;;5037824;28;20018;-67
2022/01/07 11:09:59;;;;;;;1.63;0.70;;;;;;;;;;5029930;28;20040;-66
2022/01/07 11:12:25;;;;;;;2.08;0.90;;;;;;;;;;5029437;28;20018;-67
2022/01/07 11:14:50;;;;;;;5.00;0.98;;;;;;;;;;5029135;28;20025;-67
2022/01/07 11:17:20;;;;;;;1.42;0.80;;;;;;;;;;5028965;28;20504;-67
2022/01/07 11:19:48;;;;;;;1.42;1.02;;;;;;;;;;5028970;28;20108;-67
2022/01/07 11:22:14;;;;;;;3.95;1.05;;;;;;;;;;5028845;28;20029;-66
2022/01/07 11:24:44;;;;;;;1.40;0.75;;;;;;;;;;5030109;28;20440;-66
2022/01/07 11:27:16;;;;;;;6.22;1.55;;;;;;;;;;5028679;28;20381;-66
2022/01/07 11:29:47;;;;;;;2.38;0.73;;;;;;;;;;5030160;28;20366;-66
2022/01/07 11:32:24;;;;;;;0.93;0.57;;;;;;;;;;5028249;28;20076;-66
2022/01/07 11:34:50;;;;;;;1.42;0.60;;;;;;;;;;5029628;28;20030;-66
2022/01/07 11:37:33;;;;;;;1.38;0.70;;;;;;;;;;5029395;28;20036;-67
2022/01/07 11:39:59;;;;;;;9.13;0.93;;;;;;;;;;5028777;28;20490;-67
2022/01/07 11:42:47;;;;;;;4.15;1.45;;;;;;;;;;5027887;28;20022;-66
2022/01/07 11:45:32;;;;;;;1.10;0.65;;;;;;;;;;5024657;28;20084;-67
2022/01/07 11:48:10;;;;;;;2.63;0.95;;;;;;;;;;5016769;28;20041;-67
2022/01/07 11:50:47;;;;;;;3.35;1.30;;;;;;;;;;5022406;28;20017;-67
2022/01/07 11:53:13;;;;;;;2.30;1.20;;;;;;;;;;5032548;28;20061;-67
2022/01/07 11:55:38;;;;;;;6.97;1.48;;;;;;;;;;5032366;28;20033;-66
2022/01/07 11:58:13;;;;;;;1.45;0.90;;;;;;;;;;5031713;28;20024;-67
2022/01/07 12:00:59;;;;;;;2.80;1.25;;;;;;;;;;5031812;28;20037;-67
2022/01/07 12:03:30;;;;;;;5.63;1.88;;;;;;;;;;5028663;28;20404;-66
2022/01/07 12:05:55;;;;;;;1.48;0.55;;;;;;;;;;5029448;28;20057;-66
2022/01/07 12:08:41;;;;;;;2.88;1.23;;;;;;;;;;5031254;28;20107;-67
2022/01/07 12:11:10;;;;;;;2.15;0.77;;;;;;;;;;5028530;28;20040;-67
2022/01/07 12:13:36;;;;;;;1.98;0.93;;;;;;;;;;5032307;28;20545;-67
2022/01/07 12:16:01;;;;;;;1.65;1.13;;;;;;;;;;5031644;28;20029;-66
2022/01/07 12:18:30;;;;;;;2.53;0.93;;;;;;;;;;5029930;28;20044;-66
2022/01/07 12:20:56;;;;;;;2.40;0.83;;;;;;;;;;5032003;28;20080;-67
2022/01/07 12:23:21;;;;;;;1.20;0.60;;;;;;;;;;5032275;28;20053;-67
2022/01/07 12:25:51;;;;;;;2.75;1.00;;;;;;;;;;5032251;28;20017;-67
2022/01/07 12:28:16;;;;;;;0.57;0.57;;;;;;;;;;5031885;28;20065;-67
2022/01/07 12:30:43;;;;;;;4.50;1.30;;;;;;;;;;5031373;28;20303;-67
2022/01/07 12:33:09;;;;;;;5.18;1.27;;;;;;;;;;5030908;28;20029;-66
2022/01/07 12:35:34;;;;;;;3.05;1.20;;;;;;;;;;5032338;28;20060;-66
2022/01/07 12:38:08;;;;;;;2.75;0.82;;;;;;;;;;5031408;28;20037;-67
2022/01/07 12:40:33;;;;;;;1.50;0.90;;;;;;;;;;5015819;28;20064;-67
2022/01/07 12:42:58;;;;;;;6.35;2.33;;;;;;;;;;5031790;28;20025;-66
2022/01/07 12:45:23;;;;;;;4.60;1.42;;;;;;;;;;5031396;28;20025;-67
2022/01/07 12:47:52;;;;;;;0.73;0.52;;;;;;;;;;5030978;28;20067;-66
2022/01/07 12:50:17;;;;;;;4.53;1.40;;;;;;;;;;5031876;28;20108;-67
2022/01/07 12:52:43;;;;;;;3.53;1.40;;;;;;;;;;5031973;28;20100;-67
2022/01/07 12:55:08;;;;;;;4.90;1.88;;;;;;;;;;5031187;28;20033;-67
2022/01/07 12:57:42;;;;;;;3.63;1.60;;;;;;;;;;5030768;28;20017;-67
2022/01/07 13:00:08;;;;;;;9.65;2.20;;;;;;;;;;5031451;28;20040;-67
2022/01/07 13:02:33;;;;;;;3.85;1.08;;;;;;;;;;5030013;28;20033;-67
2022/01/07 13:05:11;;;;;;;1.70;0.85;;;;;;;;;;5024835;28;20080;-67
2022/01/07 13:07:43;;;;;;;2.47;1.17;;;;;;;;;;5019823;28;20026;-67
2022/01/07 13:10:09;;;;;;;9.25;1.85;;;;;;;;;;5031532;28;20389;-67
2022/01/07 13:12:34;;;;;;;8.73;2.15;;;;;;;;;;5030600;28;20018;-67
2022/01/07 13:14:59;;;;;;;4.03;1.63;;;;;;;;;;5030030;28;20035;-67
2022/01/07 13:17:28;;;;;;;11.95;2.55;;;;;;;;;;5031127;28;20044;-67
2022/01/07 13:19:53;;;;;;;5.85;2.20;;;;;;;;;;5030479;28;20024;-66
2022/01/07 13:22:21;;;;;;;11.20;3.72;;;;;;;;;;5035143;28;20413;-67
2022/01/07 13:24:46;;;;;;;42.60;5.03;;;;;;;;;;5029502;28;20412;-67
2022/01/07 13:27:14;;;;;;;12.30;2.80;;;;;;;;;;5030021;28;20170;-67
2022/01/07 13:29:45;;;;;;;8.98;2.38;;;;;;;;;;5029652;28;20060;-66
2022/01/07 13:32:10;;;;;;;12.57;2.10;;;;;;;;;;5030860;28;20022;-66
2022/01/07 13:34:38;;;;;;;11.00;2.85;;;;;;;;;;5030413;28;20024;-67
2022/01/07 13:37:07;;;;;;;8.20;2.72;;;;;;;;;;5030160;28;20028;-67
2022/01/07 13:39:46;;;;;;;8.23;2.00;;;;;;;;;;5030483;28;20359;-67
2022/01/07 13:42:13;;;;;;;4.80;2.00;;;;;;;;;;5022522;28;20022;-67
2022/01/07 13:44:53;;;;;;;9.05;2.15;;;;;;;;;;5030622;28;20063;-67
2022/01/07 13:47:20;;;;;;;5.13;2.10;;;;;;;;;;5030745;28;20096;-67
2022/01/07 13:49:45;;;;;;;7.30;2.35;;;;;;;;;;5030109;28;20029;-67
2022/01/07 13:52:10;;;;;;;9.57;1.70;;;;;;;;;;5030532;28;20093;-67
2022/01/07 13:54:37;;;;;;;19.93;4.70;;;;;;;;;;5029883;28;20283;-66
2022/01/07 13:57:04;;;;;;;19.10;3.05;;;;;;;;;;5030210;28;20766;-66
2022/01/07 13:59:42;;;;;;;14.77;2.30;;;;;;;;;;5030296;28;20032;-66
2022/01/07 14:02:08;;;;;;;8.82;2.20;;;;;;;;;;5029403;28;20112;-66
2022/01/07 14:04:52;;;;;;;7.53;2.72;;;;;;;;;;5029554;28;20115;-66
2022/01/07 14:07:24;;;;;;;4.97;1.80;;;;;;;;;;5025816;28;20013;-66
2022/01/07 14:10:08;;;;;;;9.43;2.50;;;;;;;;;;5026136;28;20025;-66
2022/01/07 14:12:37;;;;;;;10.40;2.35;;;;;;;;;;5028558;28;20022;-67
2022/01/07 14:15:07;;;;;;;7.30;2.42;;;;;;;;;;5029504;28;20470;-66
2022/01/07 14:17:32;;;;;;;13.15;3.47;;;;;;;;;;5028977;28;20679;-66
2022/01/07 14:19:58;;;;;;;10.05;3.00;;;;;;;;;;5029243;28;20108;-66
2022/01/07 14:22:24;;;;;;;11.65;2.17;;;;;;;;;;5029519;28;20025;-67
2022/01/07 14:24:49;;;;;;;12.60;2.60;;;;;;;;;;5028775;28;20116;-66
2022/01/07 14:27:24;;;;;;;4.47;1.77;;;;;;;;;;5030455;28;20056;-67
2022/01/07 14:29:50;;;;;;;13.20;3.28;;;;;;;;;;5028723;28;20022;-66
2022/01/07 14:32:15;;;;;;;12.18;3.78;;;;;;;;;;5029894;28;20047;-66
2022/01/07 14:34:40;;;;;;;5.88;1.80;;;;;;;;;;5030022;28;20049;-66
2022/01/07 14:37:05;;;;;;;8.98;1.50;;;;;;;;;;5029630;28;20064;-66
2022/01/07 14:39:30;;;;;;;7.43;2.10;;;;;;;;;;5029356;28;20037;-67
2022/01/07 14:41:56;;;;;;;3.33;1.20;;;;;;;;;;5029452;28;20024;-68
2022/01/07 14:44:22;;;;;;;5.27;1.70;;;;;;;;;;5030186;28;20260;-68